createdAt,value
2018-06-01T00:01:04.586Z,101087.20
2018-06-01T00:03:33.436Z,101084.63
2018-06-01T00:06:02.326Z,101087.57
2018-06-01T00:08:31.531Z,101085.48
2018-06-01T00:11:00.397Z,101090.95
2018-06-01T00:13:29.223Z,101092.69
2018-06-01T00:15:58.096Z,101087.42
2018-06-01T00:18:26.948Z,101087.83
2018-06-01T00:20:55.788Z,101085.94
2018-06-01T00:23:24.627Z,101083.89
2018-06-01T00:25:53.472Z,101090.34
2018-06-01T00:28:22.318Z,101088.05
2018-06-01T00:30:51.147Z,101087.66
2018-06-01T00:33:19.985Z,101086.83
2018-06-01T00:35:48.830Z,101085.89
2018-06-01T00:38:17.680Z,101094.22
2018-06-01T00:40:46.512Z,101102.23
2018-06-01T00:43:15.401Z,101102.03
2018-06-01T00:45:44.265Z,101104.28
2018-06-01T00:48:13.152Z,101106.27
2018-06-01T00:50:41.963Z,101110.63
2018-06-01T00:53:10.819Z,101110.11
2018-06-01T00:55:39.688Z,101113.89
2018-06-01T00:58:08.557Z,101107.23
2018-06-01T01:00:37.395Z,101098.47
2018-06-01T01:03:06.277Z,101103.11
2018-06-01T01:05:35.109Z,101101.41
2018-06-01T01:08:03.982Z,101107.11
2018-06-01T01:10:32.840Z,101102.52
2018-06-01T01:13:01.670Z,101109.09
2018-06-01T01:15:30.548Z,101110.80
2018-06-01T01:17:59.401Z,101103.30
2018-06-01T01:20:28.241Z,101106.77
2018-06-01T01:22:57.073Z,101103.86
2018-06-01T01:25:25.921Z,101104.92
2018-06-01T01:27:54.862Z,101102.18
2018-06-01T01:30:23.701Z,101098.55
2018-06-01T01:32:52.560Z,101089.11
2018-06-01T01:35:21.437Z,101093.22
2018-06-01T01:37:50.256Z,101085.58
2018-06-01T01:40:19.146Z,101091.92
2018-06-01T01:42:48.030Z,101083.34
2018-06-01T01:45:16.906Z,101087.13
2018-06-01T01:47:45.757Z,101080.20
2018-06-01T01:50:14.586Z,101083.48
2018-06-01T01:52:43.477Z,101088.59
2018-06-01T01:55:12.349Z,101092.73
2018-06-01T01:57:41.176Z,101082.11
2018-06-01T02:00:10.063Z,101082.31
2018-06-01T02:02:38.952Z,101082.50
2018-06-01T02:05:07.811Z,101081.53
2018-06-01T02:07:36.672Z,101080.53
2018-06-01T02:10:05.535Z,101079.91
2018-06-01T02:12:34.370Z,101082.31
2018-06-01T02:15:03.225Z,101086.06
2018-06-01T02:17:32.072Z,101097.20
2018-06-01T02:20:00.984Z,101102.30
2018-06-01T02:22:29.769Z,101117.05
2018-06-01T02:24:58.643Z,101117.19
2018-06-01T02:27:27.477Z,101127.12
2018-06-01T02:29:56.339Z,101118.58
2018-06-01T02:32:25.207Z,101117.86
2018-06-01T02:34:54.058Z,101119.95
2018-06-01T02:37:22.904Z,101121.88
2018-06-01T02:39:51.773Z,101119.33
2018-06-01T02:42:20.617Z,101116.77
2018-06-01T02:44:49.452Z,101113.33
2018-06-01T02:47:18.285Z,101111.61
2018-06-01T02:49:47.149Z,101103.54
2018-06-01T02:52:16.007Z,101105.78
2018-06-01T02:54:44.883Z,101096.86
2018-06-01T02:57:13.729Z,101093.73
2018-06-01T02:59:42.613Z,101086.58
2018-06-01T03:02:11.467Z,101088.14
2018-06-01T03:04:40.323Z,101092.81
2018-06-01T03:07:11.970Z,101090.77
2018-06-01T03:09:40.816Z,101081.23
2018-06-01T03:12:09.637Z,101075.70
2018-06-01T03:14:38.516Z,101076.56
2018-06-01T03:17:07.364Z,101068.23
2018-06-01T03:19:36.207Z,101066.91
2018-06-01T03:22:05.075Z,101065.66
2018-06-01T03:24:33.932Z,101070.34
2018-06-01T03:27:02.764Z,101073.26
2018-06-01T03:29:31.604Z,101075.14
2018-06-01T03:32:00.445Z,101074.15
2018-06-01T03:34:29.335Z,101072.44
2018-06-01T03:36:58.152Z,101075.52
2018-06-01T03:39:27.005Z,101064.73
2018-06-01T03:41:55.845Z,101063.66
2018-06-01T03:44:24.713Z,101064.02
2018-06-01T03:46:53.604Z,101065.39
2018-06-01T03:49:22.478Z,101059.94
2018-06-01T03:51:51.334Z,101058.70
2018-06-01T03:54:20.173Z,101063.77
2018-06-01T03:56:49.027Z,101070.58
2018-06-01T03:59:17.857Z,101070.27
2018-06-01T04:01:46.724Z,101073.70
2018-06-01T04:04:15.583Z,101071.31
2018-06-01T04:06:44.472Z,101075.77
2018-06-01T04:09:13.535Z,101075.59
2018-06-01T04:11:42.370Z,101078.84
2018-06-01T04:14:11.220Z,101086.16
2018-06-01T04:16:40.052Z,101087.02
2018-06-01T04:19:08.905Z,101084.32
2018-06-01T04:21:37.760Z,101085.98
2018-06-01T04:24:06.619Z,101096.38
2018-06-01T04:26:35.482Z,101093.25
2018-06-01T04:29:04.328Z,101092.37
2018-06-01T04:31:33.200Z,101095.34
2018-06-01T04:34:02.047Z,101084.42
2018-06-01T04:36:30.891Z,101084.54
2018-06-01T04:38:59.748Z,101083.86
2018-06-01T04:41:28.576Z,101085.57
2018-06-01T04:43:57.464Z,101082.97
2018-06-01T04:46:26.302Z,101086.64
2018-06-01T04:48:55.120Z,101090.09
2018-06-01T04:51:23.948Z,101098.63
2018-06-01T04:53:52.794Z,101095.09
2018-06-01T04:56:21.654Z,101099.31
2018-06-01T04:58:50.516Z,101108.59
2018-06-01T05:01:19.360Z,101107.19
2018-06-01T05:03:48.206Z,101117.50
2018-06-01T05:06:17.051Z,101109.23
2018-06-01T05:08:45.898Z,101107.46
2018-06-01T05:11:14.725Z,101104.31
2018-06-01T05:13:43.567Z,101108.52
2018-06-01T05:16:12.410Z,101112.55
2018-06-01T05:18:41.275Z,101110.84
2018-06-01T05:21:10.134Z,101120.23
2018-06-01T05:23:38.952Z,101126.77
2018-06-01T05:26:07.815Z,101134.34
2018-06-01T05:28:36.667Z,101147.34
2018-06-01T05:31:05.509Z,101155.26
2018-06-01T05:33:34.381Z,101149.21
2018-06-01T05:36:03.236Z,101145.91
2018-06-01T05:38:32.074Z,101136.22
2018-06-01T05:41:01.051Z,101130.02
2018-06-01T05:43:29.928Z,101130.66
2018-06-01T05:45:58.795Z,101118.55
2018-06-01T05:48:27.685Z,101123.64
2018-06-01T05:50:56.524Z,101124.79
2018-06-01T05:53:25.341Z,101123.97
2018-06-01T05:55:54.193Z,101133.14
2018-06-01T05:58:23.056Z,101121.76
2018-06-01T06:00:51.910Z,101126.27
2018-06-01T06:03:20.758Z,101121.28
2018-06-01T06:05:49.973Z,101114.55
2018-06-01T06:08:18.801Z,101114.76
2018-06-01T06:10:47.659Z,101114.48
2018-06-01T06:13:16.567Z,101111.78
2018-06-01T06:15:45.370Z,101108.89
2018-06-01T06:18:14.324Z,101112.06
2018-06-01T06:20:43.198Z,101102.81
2018-06-01T06:23:12.032Z,101105.90
2018-06-01T06:25:40.924Z,101112.59
2018-06-01T06:28:09.797Z,101115.02
2018-06-01T06:30:38.650Z,101118.81
2018-06-01T06:33:07.481Z,101117.87
2018-06-01T06:35:36.331Z,101121.70
2018-06-01T06:38:05.584Z,101113.44
2018-06-01T06:40:34.437Z,101116.63
2018-06-01T06:43:03.298Z,101122.80
2018-06-01T06:45:32.125Z,101124.12
2018-06-01T06:48:01.023Z,101119.38
2018-06-01T06:50:29.909Z,101124.03
2018-06-01T06:52:58.768Z,101120.32
2018-06-01T06:55:27.642Z,101121.47
2018-06-01T06:57:56.477Z,101117.33
2018-06-01T07:00:25.423Z,101119.22
2018-06-01T07:02:54.312Z,101115.41
2018-06-01T07:05:23.188Z,101116.31
2018-06-01T07:07:52.048Z,101109.40
2018-06-01T07:10:20.908Z,101115.27
2018-06-01T07:12:49.800Z,101113.34
2018-06-01T07:15:18.659Z,101110.84
2018-06-01T07:17:47.554Z,101114.25
2018-06-01T07:20:16.460Z,101112.14
2018-06-01T07:22:45.259Z,101109.92
2018-06-01T07:25:15.528Z,101104.05
2018-06-01T07:27:44.513Z,101105.08
2018-06-01T07:30:13.379Z,101095.08
2018-06-01T07:32:42.250Z,101101.37
2018-06-01T07:35:11.097Z,101090.95
2018-06-01T07:37:39.944Z,101089.31
2018-06-01T07:40:08.837Z,101090.53
2018-06-01T07:42:37.710Z,101088.64
2018-06-01T07:45:06.570Z,101092.05
2018-06-01T07:47:35.406Z,101093.11
2018-06-01T07:50:04.319Z,101091.83
2018-06-01T07:52:33.172Z,101104.14
2018-06-01T07:55:02.081Z,101097.43
2018-06-01T07:57:30.937Z,101096.16
2018-06-01T07:59:59.766Z,101097.38
2018-06-01T08:02:28.626Z,101096.33
2018-06-01T08:04:57.520Z,101086.56
2018-06-01T08:07:26.384Z,101090.52
2018-06-01T08:09:55.251Z,101089.33
2018-06-01T08:12:24.113Z,101083.05
2018-06-01T08:14:52.977Z,101079.35
2018-06-01T08:17:21.824Z,101074.73
2018-06-01T08:19:50.679Z,101077.95
2018-06-01T08:22:19.552Z,101088.11
2018-06-01T08:24:48.391Z,101079.13
2018-06-01T08:27:17.243Z,101087.41
2018-06-01T08:29:46.099Z,101080.80
2018-06-01T08:32:15.091Z,101090.30
2018-06-01T08:34:43.906Z,101089.27
2018-06-01T08:37:12.755Z,101085.80
2018-06-01T08:39:42.157Z,101090.44
2018-06-01T08:42:14.146Z,101087.34
2018-06-01T08:44:43.170Z,101087.11
2018-06-01T08:47:14.721Z,101083.55
2018-06-01T08:49:44.086Z,101079.89
2018-06-01T08:52:18.743Z,101084.19
2018-06-01T08:54:48.070Z,101088.19
2018-06-01T08:57:19.848Z,101090.90
2018-06-01T08:59:57.204Z,101096.70
2018-06-01T09:02:26.344Z,101098.16
2018-06-01T09:04:55.254Z,101091.77
2018-06-01T09:07:24.317Z,101096.55
2018-06-01T09:09:53.415Z,101095.78
2018-06-01T09:12:22.870Z,101092.34
2018-06-01T09:14:52.613Z,101107.19
2018-06-01T09:17:22.340Z,101095.98
2018-06-01T09:19:54.710Z,101099.39
2018-06-01T09:22:24.139Z,101104.50
2018-06-01T09:24:54.204Z,101109.84
2018-06-01T09:27:23.682Z,101111.23
2018-06-01T09:29:52.799Z,101107.81
2018-06-01T09:32:21.957Z,101108.13
2018-06-01T09:34:51.402Z,101113.14
2018-06-01T09:37:20.672Z,101114.29
2018-06-01T09:39:53.628Z,101112.78
2018-06-01T09:42:24.549Z,101107.95
2018-06-01T09:44:53.792Z,101105.05
2018-06-01T09:47:26.221Z,101107.59
2018-06-01T09:49:55.337Z,101110.81
2018-06-01T09:52:24.809Z,101103.88
2018-06-01T09:54:54.085Z,101107.23
2018-06-01T09:57:23.106Z,101114.73
2018-06-01T09:59:54.562Z,101109.48
2018-06-01T10:02:26.198Z,101115.34
2018-06-01T10:04:55.624Z,101114.16
2018-06-01T10:07:24.746Z,101116.80
2018-06-01T10:10:13.175Z,101117.34
2018-06-01T10:12:43.497Z,101118.90
2018-06-01T10:15:13.110Z,101120.21
2018-06-01T10:17:45.831Z,101121.66
2018-06-01T10:20:16.185Z,101122.70
2018-06-01T10:22:48.379Z,101131.55
2018-06-01T10:25:18.115Z,101136.13
2018-06-01T10:27:48.225Z,101139.42
2018-06-01T10:30:18.170Z,101144.91
2018-06-01T10:32:48.116Z,101143.22
2018-06-01T10:35:18.974Z,101135.86
2018-06-01T10:37:48.741Z,101145.11
2018-06-01T10:40:18.170Z,101143.14
2018-06-01T10:42:47.690Z,101141.48
2018-06-01T10:45:17.265Z,101141.92
2018-06-01T10:47:46.734Z,101152.98
2018-06-01T10:50:15.950Z,101148.63
2018-06-01T10:52:45.332Z,101147.80
2018-06-01T10:55:14.902Z,101150.73
2018-06-01T10:57:44.067Z,101151.12
2018-06-01T11:00:13.797Z,101146.67
2018-06-01T11:02:44.097Z,101153.70
2018-06-01T11:05:13.540Z,101154.16
2018-06-01T11:07:45.641Z,101163.31
2018-06-01T11:10:15.122Z,101163.20
2018-06-01T11:12:44.346Z,101163.97
2018-06-01T11:15:14.181Z,101167.12
2018-06-01T11:17:43.358Z,101170.86
2018-06-01T11:20:12.795Z,101173.50
2018-06-01T11:22:41.915Z,101188.89
2018-06-01T11:25:13.905Z,101182.78
2018-06-01T11:27:42.946Z,101181.68
2018-06-01T11:30:12.446Z,101187.32
2018-06-01T11:32:41.573Z,101184.34
2018-06-01T11:35:13.153Z,101185.91
2018-06-01T11:37:42.145Z,101185.91
2018-06-01T11:40:11.294Z,101180.41
2018-06-01T11:42:43.339Z,101180.44
2018-06-01T11:45:12.540Z,101182.27
2018-06-01T11:47:41.996Z,101169.16
2018-06-01T11:50:11.560Z,101171.45
2018-06-01T11:52:44.153Z,101178.94
2018-06-01T11:55:13.207Z,101179.80
2018-06-01T11:57:43.986Z,101190.72
2018-06-01T12:00:13.154Z,101181.86
2018-06-01T12:02:45.052Z,101196.84
2018-06-01T12:05:14.242Z,101191.23
2018-06-01T12:07:43.303Z,101197.50
2018-06-01T12:10:12.558Z,101197.09
2018-06-01T12:12:44.681Z,101193.59
2018-06-01T12:15:16.501Z,101185.84
2018-06-01T12:17:45.569Z,101191.58
2018-06-01T12:20:14.848Z,101190.64
2018-06-01T12:22:46.927Z,101184.91
2018-06-01T12:25:18.792Z,101186.41
2018-06-01T12:27:50.430Z,101183.23
2018-06-01T12:30:19.913Z,101181.33
2018-06-01T12:32:49.480Z,101180.59
2018-06-01T12:35:18.567Z,101169.66
2018-06-01T12:37:47.761Z,101163.61
2018-06-01T12:40:17.134Z,101150.64
2018-06-01T12:42:49.242Z,101155.74
2018-06-01T12:45:18.534Z,101159.23
2018-06-01T12:47:48.387Z,101153.42
2018-06-01T12:50:17.606Z,101157.14
2018-06-01T12:52:46.899Z,101157.23
2018-06-01T12:55:16.054Z,101165.08
2018-06-01T12:57:45.441Z,101169.23
2018-06-01T13:00:14.957Z,101175.29
2018-06-01T13:02:47.394Z,101169.89
2018-06-01T13:05:16.779Z,101156.48
2018-06-01T13:07:48.824Z,101158.08
2018-06-01T13:10:20.833Z,101158.83
2018-06-01T13:12:55.930Z,101160.20
2018-06-01T13:15:25.037Z,101156.71
2018-06-01T13:17:54.411Z,101152.78
2018-06-01T13:20:23.649Z,101154.80
2018-06-01T13:22:53.170Z,101158.52
2018-06-01T13:25:22.243Z,101158.17
2018-06-01T13:27:53.800Z,101155.84
2018-06-01T13:30:22.989Z,101161.58
2018-06-01T13:33:00.227Z,101161.98
2018-06-01T13:35:29.371Z,101156.42
2018-06-01T13:37:58.529Z,101155.83
2018-06-01T13:40:32.435Z,101155.98
2018-06-01T13:43:01.500Z,101148.11
2018-06-01T13:45:30.744Z,101146.27
2018-06-01T13:47:59.748Z,101151.84
2018-06-01T13:50:28.885Z,101153.22
2018-06-01T13:52:57.988Z,101156.64
2018-06-01T13:55:29.919Z,101155.78
2018-06-01T13:57:59.121Z,101160.03
2018-06-01T14:00:29.439Z,101166.22
2018-06-01T14:02:58.806Z,101165.03
2018-06-01T14:05:28.329Z,101168.13
2018-06-01T14:07:57.579Z,101170.25
2018-06-01T14:10:27.356Z,101166.14
2018-06-01T14:12:59.867Z,101168.87
2018-06-01T14:15:29.302Z,101173.45
2018-06-01T14:18:03.532Z,101172.55
2018-06-01T14:20:32.837Z,101161.09
2018-06-01T14:23:02.044Z,101164.35
2018-06-01T14:25:31.408Z,101164.70
2018-06-01T14:28:00.970Z,101165.66
2018-06-01T14:30:30.486Z,101174.51
2018-06-01T14:33:07.339Z,101164.96
2018-06-01T14:35:36.583Z,101169.59
2018-06-01T14:38:05.884Z,101166.98
2018-06-01T14:40:35.064Z,101170.94
2018-06-01T14:43:04.093Z,101166.32
2018-06-01T14:45:33.233Z,101163.48
2018-06-01T14:48:02.631Z,101166.17
2018-06-01T14:50:31.958Z,101155.61
2018-06-01T14:53:01.708Z,101156.47
2018-06-01T14:55:33.325Z,101150.88
2018-06-01T14:58:02.349Z,101151.46
2018-06-01T15:00:31.793Z,101154.27
2018-06-01T15:03:01.097Z,101152.22
2018-06-01T15:05:30.429Z,101160.52
2018-06-01T15:07:59.572Z,101158.83
2018-06-01T15:10:28.712Z,101166.85
2018-06-01T15:12:57.752Z,101167.17
2018-06-01T15:15:26.923Z,101184.34
2018-06-01T15:17:55.944Z,101174.83
2018-06-01T15:20:25.160Z,101176.88
2018-06-01T15:22:54.441Z,101191.47
2018-06-01T15:25:23.687Z,101194.36
2018-06-01T15:27:52.777Z,101189.56
2018-06-01T15:30:21.991Z,101197.42
2018-06-01T15:32:54.293Z,101196.88
2018-06-01T15:35:23.443Z,101201.66
2018-06-01T15:37:52.518Z,101210.61
2018-06-01T15:40:21.663Z,101211.16
2018-06-01T15:42:50.823Z,101216.87
2018-06-01T15:45:20.142Z,101214.85
2018-06-01T15:47:49.264Z,101221.13
2018-06-01T15:50:23.311Z,101218.54
2018-06-01T15:52:52.497Z,101223.05
2018-06-01T15:55:21.564Z,101225.77
2018-06-01T15:57:50.859Z,101229.91
2018-06-01T16:00:19.913Z,101234.70
2018-06-01T16:02:49.163Z,101237.46
2018-06-01T16:05:18.423Z,101237.00
2018-06-01T16:07:47.811Z,101240.80
2018-06-01T16:10:16.805Z,101239.72
2018-06-01T16:12:45.939Z,101245.75
2018-06-01T16:15:15.126Z,101251.80
2018-06-01T16:17:44.100Z,101249.81
2018-06-01T16:20:16.134Z,101248.89
2018-06-01T16:22:46.477Z,101249.20
2018-06-01T16:25:15.853Z,101250.37
2018-06-01T16:27:45.518Z,101248.09
2018-06-01T16:30:14.648Z,101248.21
2018-06-01T16:32:44.165Z,101249.99
2018-06-01T16:35:18.837Z,101255.64
2018-06-01T16:37:50.957Z,101261.55
2018-06-01T16:40:30.987Z,101273.39
2018-06-01T16:43:00.179Z,101276.52
2018-06-01T16:45:29.312Z,101278.11
2018-06-01T16:47:58.547Z,101271.80
2018-06-01T16:50:27.815Z,101268.58
2018-06-01T16:53:02.989Z,101271.47
2018-06-01T16:55:31.898Z,101267.58
2018-06-01T16:58:00.766Z,101259.65
2018-06-01T17:00:29.660Z,101264.17
2018-06-01T17:02:58.535Z,101262.89
2018-06-01T17:05:27.401Z,101256.36
2018-06-01T17:07:56.414Z,101259.78
2018-06-01T17:10:25.212Z,101254.98
2018-06-01T17:12:54.101Z,101252.73
2018-06-01T17:15:29.286Z,101255.03
2018-06-01T17:17:58.125Z,101257.36
2018-06-01T17:20:27.004Z,101257.63
2018-06-01T17:22:55.978Z,101260.59
2018-06-01T17:25:24.920Z,101256.09
2018-06-01T17:27:53.784Z,101249.58
2018-06-01T17:30:22.686Z,101238.19
2018-06-01T17:32:51.556Z,101236.87
2018-06-01T17:35:20.458Z,101237.86
2018-06-01T17:37:50.834Z,101238.81
2018-06-01T17:40:19.690Z,101228.70
2018-06-01T17:42:48.587Z,101230.41
2018-06-01T17:45:17.459Z,101226.80
2018-06-01T17:47:46.376Z,101235.36
2018-06-01T17:50:15.233Z,101229.45
2018-06-01T17:52:44.627Z,101233.83
2018-06-01T17:55:13.513Z,101223.33
2018-06-01T17:57:42.538Z,101224.95
2018-06-01T18:00:11.428Z,101224.42
2018-06-01T18:02:40.345Z,101226.27
2018-06-01T18:05:09.212Z,101224.05
2018-06-01T18:07:38.048Z,101228.30
2018-06-01T18:10:06.927Z,101217.14
2018-06-01T18:12:35.774Z,101217.85
2018-06-01T18:15:04.656Z,101214.95
2018-06-01T18:17:33.646Z,101220.22
2018-06-01T18:20:02.669Z,101218.38
2018-06-01T18:22:31.591Z,101223.30
2018-06-01T18:25:00.422Z,101231.56
2018-06-01T18:27:29.295Z,101234.88
2018-06-01T18:29:58.110Z,101228.78
2018-06-01T18:32:27.027Z,101234.59
2018-06-01T18:34:55.911Z,101229.87
2018-06-01T18:37:24.776Z,101239.59
2018-06-01T18:39:53.642Z,101239.84
2018-06-01T18:42:22.500Z,101245.47
2018-06-01T18:44:57.752Z,101243.42
2018-06-01T18:47:26.596Z,101244.43
2018-06-01T18:49:55.483Z,101236.58
2018-06-01T18:52:24.319Z,101233.86
2018-06-01T18:54:53.547Z,101227.91
2018-06-01T18:57:22.360Z,101230.66
2018-06-01T18:59:51.182Z,101233.31
2018-06-01T19:02:20.101Z,101233.11
2018-06-01T19:04:48.943Z,101231.40
2018-06-01T19:07:18.106Z,101236.99
2018-06-01T19:09:46.948Z,101248.76
2018-06-01T19:12:15.906Z,101248.54
2018-06-01T19:14:44.864Z,101255.08
2018-06-01T19:17:13.753Z,101253.76
2018-06-01T19:19:42.600Z,101256.72
2018-06-01T19:22:11.449Z,101268.72
2018-06-01T19:24:40.300Z,101266.88
2018-06-01T19:27:09.342Z,101264.95
2018-06-01T19:29:44.476Z,101264.43
2018-06-01T19:32:13.348Z,101261.98
2018-06-01T19:34:42.268Z,101269.65
2018-06-01T19:37:11.151Z,101269.59
2018-06-01T19:39:40.033Z,101271.60
2018-06-01T19:42:08.941Z,101273.49
2018-06-01T19:44:37.807Z,101274.36
2018-06-01T19:47:06.683Z,101283.64
2018-06-01T19:49:35.553Z,101281.92
2018-06-01T19:52:58.704Z,101290.89
2018-06-01T19:55:27.555Z,101286.09
2018-06-01T19:57:56.463Z,101294.42
2018-06-01T20:00:25.301Z,101302.14
2018-06-01T20:02:54.142Z,101300.71
2018-06-01T20:05:23.027Z,101304.52
2018-06-01T20:07:51.914Z,101308.14
2018-06-01T20:10:20.810Z,101308.48
2018-06-01T20:12:49.662Z,101315.91
2018-06-01T20:15:18.760Z,101324.84
2018-06-01T20:17:47.687Z,101328.31
2018-06-01T20:20:16.521Z,101330.50
2018-06-01T20:22:45.372Z,101327.47
2018-06-01T20:25:14.320Z,101330.94
2018-06-01T20:27:43.209Z,101334.04
2018-06-01T20:30:12.258Z,101329.05
2018-06-01T20:32:41.124Z,101333.64
2018-06-01T20:35:10.004Z,101331.37
2018-06-01T20:37:40.086Z,101334.16
2018-06-01T20:40:09.004Z,101333.13
2018-06-01T20:42:37.909Z,101335.06
2018-06-01T20:45:06.762Z,101332.48
2018-06-01T20:47:35.861Z,101338.97
2018-06-01T20:50:04.740Z,101328.96
2018-06-01T20:52:33.617Z,101327.56
2018-06-01T20:55:02.480Z,101335.94
2018-06-01T20:57:31.357Z,101333.25
2018-06-01T21:00:00.413Z,101331.75
2018-06-01T21:02:29.270Z,101324.64
2018-06-01T21:04:58.101Z,101338.12
2018-06-01T21:07:26.989Z,101334.20
2018-06-01T21:09:55.849Z,101335.77
2018-06-01T21:12:24.747Z,101344.23
2018-06-01T21:14:53.612Z,101344.92
2018-06-01T21:17:22.576Z,101343.76
2018-06-01T21:19:51.443Z,101348.05
2018-06-01T21:22:20.402Z,101347.58
2018-06-01T21:24:49.268Z,101345.18
2018-06-01T21:27:18.172Z,101340.03
2018-06-01T21:29:47.068Z,101341.41
2018-06-01T21:32:15.915Z,101350.84
2018-06-01T21:34:44.810Z,101346.56
2018-06-01T21:37:13.683Z,101351.05
2018-06-01T21:39:42.548Z,101353.11
2018-06-01T21:42:11.457Z,101350.20
2018-06-01T21:44:46.524Z,101348.03
2018-06-01T21:47:15.358Z,101354.38
2018-06-01T21:49:44.227Z,101360.72
2018-06-01T21:52:13.110Z,101347.72
2018-06-01T21:54:42.087Z,101349.80
2018-06-01T21:57:10.869Z,101349.10
2018-06-01T21:59:39.754Z,101356.30
2018-06-01T22:02:08.671Z,101355.78
2018-06-01T22:04:37.545Z,101358.19
2018-06-01T22:07:06.669Z,101363.86
2018-06-01T22:09:35.531Z,101365.73
2018-06-01T22:12:04.451Z,101362.13
2018-06-01T22:14:33.312Z,101366.60
2018-06-01T22:17:02.170Z,101364.88
2018-06-01T22:19:31.015Z,101368.64
2018-06-01T22:21:59.907Z,101367.28
2018-06-01T22:24:28.762Z,101373.96
2018-06-01T22:26:57.646Z,101370.03
2018-06-01T22:29:27.745Z,101366.94
2018-06-01T22:31:56.616Z,101373.45
2018-06-01T22:34:25.525Z,101365.22
2018-06-01T22:36:54.391Z,101373.45
2018-06-01T22:39:23.242Z,101373.46
2018-06-01T22:41:52.178Z,101374.48
2018-06-01T22:44:21.185Z,101371.08
2018-06-01T22:46:50.057Z,101375.01
2018-06-01T22:49:18.922Z,101369.54
2018-06-01T22:51:47.764Z,101372.45
2018-06-01T22:54:16.656Z,101367.98
2018-06-01T22:56:45.522Z,101364.54
2018-06-01T22:59:14.385Z,101361.29
2018-06-01T23:01:43.227Z,101364.19
2018-06-01T23:04:12.097Z,101363.69
2018-06-01T23:06:40.990Z,101362.16
2018-06-01T23:09:10.184Z,101362.67
2018-06-01T23:11:39.142Z,101359.25
2018-06-01T23:14:08.018Z,101363.69
2018-06-01T23:16:36.862Z,101363.70
2018-06-01T23:19:05.808Z,101362.33
2018-06-01T23:21:34.655Z,101360.27
2018-06-01T23:24:03.524Z,101361.14
2018-06-01T23:26:32.508Z,101361.30
2018-06-01T23:29:01.344Z,101356.64
2018-06-01T23:31:30.230Z,101353.22
2018-06-01T23:34:02.146Z,101352.19
2018-06-01T23:36:31.043Z,101350.70
2018-06-01T23:38:59.927Z,101354.11
2018-06-01T23:41:28.848Z,101347.59
2018-06-01T23:43:57.726Z,101348.59
2018-06-01T23:46:26.600Z,101345.55
2018-06-01T23:48:55.456Z,101347.27
2018-06-01T23:51:24.319Z,101348.98
2018-06-01T23:53:53.264Z,101346.24
2018-06-01T23:56:22.085Z,101348.30
2018-06-01T23:58:50.937Z,101344.12
